createdAt,value
2018-01-21T00:00:32.171Z,100.0
2018-01-21T00:01:33.608Z,100.0
2018-01-21T00:02:35.033Z,100.0
2018-01-21T00:03:36.485Z,100.0
2018-01-21T00:04:37.914Z,100.0
2018-01-21T00:05:39.401Z,100.0
2018-01-21T00:06:40.832Z,100.0
2018-01-21T00:07:42.280Z,100.0
2018-01-21T00:08:43.656Z,100.0
2018-01-21T00:09:45.052Z,100.0
2018-01-21T00:10:46.471Z,99.9
2018-01-21T00:11:47.927Z,99.8
2018-01-21T00:12:49.415Z,100.0
2018-01-21T00:13:50.825Z,99.5
2018-01-21T00:14:52.251Z,100.0
2018-01-21T00:15:53.665Z,100.0
2018-01-21T00:16:55.091Z,99.6
2018-01-21T00:17:56.480Z,99.7
2018-01-21T00:18:57.945Z,99.6
2018-01-21T00:19:59.329Z,99.6
2018-01-21T00:21:00.744Z,99.4
2018-01-21T00:22:02.110Z,99.5
2018-01-21T00:23:03.514Z,99.9
2018-01-21T00:24:04.927Z,99.5
2018-01-21T00:25:06.332Z,100.0
2018-01-21T00:26:07.722Z,100.0
2018-01-21T00:27:09.152Z,99.9
2018-01-21T00:28:10.531Z,100.0
2018-01-21T00:29:11.899Z,100.0
2018-01-21T00:30:13.292Z,100.0
2018-01-21T00:31:14.720Z,100.0
2018-01-21T00:32:16.110Z,100.0
2018-01-21T00:33:17.780Z,100.0
2018-01-21T00:34:19.178Z,100.0
2018-01-21T00:35:20.633Z,100.0
2018-01-21T00:36:22.043Z,100.0
2018-01-21T00:37:23.578Z,100.0
2018-01-21T00:38:24.971Z,100.0
2018-01-21T00:39:26.365Z,100.0
2018-01-21T00:40:27.789Z,100.0
2018-01-21T00:41:29.462Z,100.0
2018-01-21T00:42:30.922Z,100.0
2018-01-21T00:43:32.352Z,100.0
2018-01-21T00:44:33.797Z,100.0
2018-01-21T00:45:35.197Z,100.0
2018-01-21T00:46:36.664Z,100.0
2018-01-21T00:47:38.036Z,100.0
2018-01-21T00:48:39.442Z,100.0
2018-01-21T00:49:40.808Z,100.0
2018-01-21T00:50:42.184Z,100.0
2018-01-21T00:51:43.554Z,100.0
2018-01-21T00:52:45.021Z,100.0
2018-01-21T00:53:46.468Z,100.0
2018-01-21T00:54:47.858Z,100.0
2018-01-21T00:55:49.242Z,100.0
2018-01-21T00:56:50.666Z,100.0
2018-01-21T00:57:52.083Z,100.0
2018-01-21T00:58:53.462Z,100.0
2018-01-21T00:59:54.897Z,100.0
2018-01-21T01:00:56.300Z,100.0
2018-01-21T01:01:57.733Z,100.0
2018-01-21T01:02:59.173Z,100.0
2018-01-21T01:04:00.612Z,100.0
2018-01-21T01:05:02.059Z,100.0
2018-01-21T01:06:03.515Z,100.0
2018-01-21T01:07:04.915Z,100.0
2018-01-21T01:08:06.337Z,100.0
2018-01-21T01:09:07.719Z,100.0
2018-01-21T01:10:09.121Z,100.0
2018-01-21T01:11:10.629Z,100.0
2018-01-21T01:12:12.014Z,100.0
2018-01-21T01:13:13.550Z,100.0
2018-01-21T01:14:14.924Z,100.0
2018-01-21T01:15:16.801Z,100.0
2018-01-21T01:16:18.579Z,100.0
2018-01-21T01:17:20.499Z,100.0
2018-01-21T01:18:22.253Z,100.0
2018-01-21T01:19:24.029Z,100.0
2018-01-21T01:20:25.931Z,100.0
2018-01-21T01:21:27.596Z,100.0
2018-01-21T01:22:29.174Z,100.0
2018-01-21T01:23:30.532Z,100.0
2018-01-21T01:24:31.964Z,100.0
2018-01-21T01:25:33.450Z,100.0
2018-01-21T01:26:34.902Z,100.0
2018-01-21T01:27:36.369Z,100.0
2018-01-21T01:28:37.754Z,100.0
2018-01-21T01:29:40.511Z,100.0
2018-01-21T01:30:41.968Z,100.0
2018-01-21T01:31:43.374Z,100.0
2018-01-21T01:32:45.050Z,100.0
2018-01-21T01:33:46.554Z,100.0
2018-01-21T01:34:47.971Z,100.0
2018-01-21T01:35:49.393Z,100.0
2018-01-21T01:36:50.864Z,100.0
2018-01-21T01:37:52.335Z,100.0
2018-01-21T01:38:53.813Z,100.0
2018-01-21T01:39:55.320Z,100.0
2018-01-21T01:40:56.751Z,100.0
2018-01-21T01:41:58.143Z,100.0
2018-01-21T01:42:59.610Z,100.0
2018-01-21T01:44:01.039Z,100.0
2018-01-21T01:45:02.479Z,100.0
2018-01-21T01:46:04.066Z,100.0
2018-01-21T01:47:05.478Z,100.0
2018-01-21T01:48:06.950Z,100.0
2018-01-21T01:49:08.329Z,100.0
2018-01-21T01:50:09.874Z,100.0
2018-01-21T01:51:11.684Z,100.0
2018-01-21T01:52:13.547Z,100.0
2018-01-21T01:53:15.246Z,100.0
2018-01-21T01:54:16.643Z,100.0
2018-01-21T01:55:18.041Z,100.0
2018-01-21T01:56:19.488Z,100.0
2018-01-21T01:57:20.861Z,100.0
2018-01-21T01:58:22.334Z,100.0
2018-01-21T01:59:23.839Z,100.0
2018-01-21T02:00:25.336Z,100.0
2018-01-21T02:01:26.886Z,100.0
2018-01-21T02:02:28.359Z,100.0
2018-01-21T02:03:29.838Z,100.0
2018-01-21T02:04:31.265Z,100.0
2018-01-21T02:05:32.727Z,100.0
2018-01-21T02:06:34.182Z,100.0
2018-01-21T02:07:35.558Z,100.0
2018-01-21T02:08:37.032Z,100.0
2018-01-21T02:09:38.383Z,100.0
2018-01-21T02:10:39.818Z,100.0
2018-01-21T02:11:41.316Z,100.0
2018-01-21T02:12:42.704Z,100.0
2018-01-21T02:13:44.182Z,100.0
2018-01-21T02:14:45.596Z,100.0
2018-01-21T02:15:47.066Z,100.0
2018-01-21T02:16:48.448Z,100.0
2018-01-21T02:17:49.881Z,100.0
2018-01-21T02:18:51.290Z,100.0
2018-01-21T02:19:52.693Z,100.0
2018-01-21T02:20:54.142Z,100.0
2018-01-21T02:21:55.593Z,100.0
2018-01-21T02:22:56.978Z,100.0
2018-01-21T02:23:58.450Z,100.0
2018-01-21T02:24:59.936Z,100.0
2018-01-21T02:26:01.392Z,100.0
2018-01-21T02:27:02.815Z,100.0
2018-01-21T02:28:04.301Z,100.0
2018-01-21T02:29:05.725Z,100.0
2018-01-21T02:30:07.130Z,100.0
2018-01-21T02:31:08.570Z,100.0
2018-01-21T02:32:10.030Z,100.0
2018-01-21T02:33:11.612Z,100.0
2018-01-21T02:34:13.038Z,100.0
2018-01-21T02:35:14.423Z,100.0
2018-01-21T02:36:15.866Z,100.0
2018-01-21T02:37:17.370Z,100.0
2018-01-21T02:38:18.748Z,100.0
2018-01-21T02:39:20.253Z,100.0
2018-01-21T02:40:21.868Z,100.0
2018-01-21T02:41:23.340Z,100.0
2018-01-21T02:42:24.745Z,100.0
2018-01-21T02:43:26.136Z,100.0
2018-01-21T02:44:27.535Z,100.0
2018-01-21T02:45:28.933Z,100.0
2018-01-21T02:46:30.321Z,100.0
2018-01-21T02:47:31.744Z,100.0
2018-01-21T02:48:33.114Z,100.0
2018-01-21T02:49:34.503Z,100.0
2018-01-21T02:50:35.886Z,100.0
2018-01-21T02:51:37.400Z,100.0
2018-01-21T02:52:38.801Z,100.0
2018-01-21T02:53:40.165Z,100.0
2018-01-21T02:54:41.619Z,100.0
2018-01-21T02:55:43.082Z,100.0
2018-01-21T02:56:44.553Z,100.0
2018-01-21T02:57:46.096Z,100.0
2018-01-21T02:58:47.546Z,100.0
2018-01-21T02:59:48.963Z,100.0
2018-01-21T03:00:50.371Z,100.0
2018-01-21T03:01:51.785Z,100.0
2018-01-21T03:02:53.207Z,100.0
2018-01-21T03:03:54.668Z,100.0
2018-01-21T03:04:56.125Z,100.0
2018-01-21T03:05:57.500Z,100.0
2018-01-21T03:06:58.879Z,100.0
2018-01-21T03:08:00.320Z,100.0
2018-01-21T03:09:01.749Z,100.0
2018-01-21T03:10:03.148Z,100.0
2018-01-21T03:11:04.547Z,100.0
2018-01-21T03:12:05.923Z,100.0
2018-01-21T03:13:07.405Z,100.0
2018-01-21T03:14:08.846Z,100.0
2018-01-21T03:15:10.237Z,100.0
2018-01-21T03:16:11.747Z,100.0
2018-01-21T03:17:13.204Z,100.0
2018-01-21T03:18:14.604Z,100.0
2018-01-21T03:19:16.050Z,100.0
2018-01-21T03:20:17.436Z,100.0
2018-01-21T03:21:18.879Z,100.0
2018-01-21T03:22:20.271Z,100.0
2018-01-21T03:23:21.736Z,100.0
2018-01-21T03:24:23.156Z,100.0
2018-01-21T03:25:24.594Z,100.0
2018-01-21T03:26:25.970Z,100.0
2018-01-21T03:27:27.470Z,100.0
2018-01-21T03:28:28.876Z,100.0
2018-01-21T03:29:30.269Z,100.0
2018-01-21T03:30:31.722Z,100.0
2018-01-21T03:31:33.098Z,100.0
2018-01-21T03:32:34.532Z,100.0
2018-01-21T03:33:35.914Z,100.0
2018-01-21T03:34:37.477Z,100.0
2018-01-21T03:35:38.889Z,100.0
2018-01-21T03:36:40.354Z,100.0
2018-01-21T03:37:41.833Z,100.0
2018-01-21T03:38:43.288Z,100.0
2018-01-21T03:39:44.713Z,100.0
2018-01-21T03:40:46.131Z,100.0
2018-01-21T03:41:47.535Z,100.0
2018-01-21T03:42:48.955Z,100.0
2018-01-21T03:43:50.392Z,100.0
2018-01-21T03:44:51.877Z,100.0
2018-01-21T03:45:53.313Z,100.0
2018-01-21T03:46:54.691Z,100.0
2018-01-21T03:47:56.080Z,100.0
2018-01-21T03:48:57.453Z,100.0
2018-01-21T03:49:58.816Z,100.0
2018-01-21T03:51:00.244Z,100.0
2018-01-21T03:52:01.663Z,100.0
2018-01-21T03:53:03.107Z,100.0
2018-01-21T03:54:04.751Z,100.0
2018-01-21T03:55:06.296Z,100.0
2018-01-21T03:56:07.683Z,100.0
2018-01-21T03:57:09.137Z,100.0
2018-01-21T03:58:10.564Z,100.0
2018-01-21T03:59:11.974Z,100.0
2018-01-21T04:00:13.385Z,100.0
2018-01-21T04:01:14.827Z,100.0
2018-01-21T04:02:16.255Z,100.0
2018-01-21T04:03:17.718Z,100.0
2018-01-21T04:04:19.097Z,100.0
2018-01-21T04:05:20.515Z,100.0
2018-01-21T04:06:22.026Z,100.0
2018-01-21T04:07:23.426Z,100.0
2018-01-21T04:08:24.886Z,100.0
2018-01-21T04:09:26.264Z,100.0
2018-01-21T04:10:27.626Z,99.9
2018-01-21T04:11:29.049Z,100.0
2018-01-21T04:12:30.459Z,100.0
2018-01-21T04:13:31.862Z,100.0
2018-01-21T04:14:33.347Z,100.0
2018-01-21T04:15:34.721Z,100.0
2018-01-21T04:16:36.148Z,100.0
2018-01-21T04:17:37.577Z,100.0
2018-01-21T04:18:38.942Z,100.0
2018-01-21T04:19:40.306Z,99.8
2018-01-21T04:20:41.818Z,100.0
2018-01-21T04:21:43.180Z,100.0
2018-01-21T04:22:44.604Z,100.0
2018-01-21T04:23:46.069Z,99.9
2018-01-21T04:24:47.543Z,100.0
2018-01-21T04:25:48.937Z,100.0
2018-01-21T04:26:50.319Z,100.0
2018-01-21T04:27:51.759Z,100.0
2018-01-21T04:28:53.188Z,100.0
2018-01-21T04:29:54.635Z,99.9
2018-01-21T04:30:56.046Z,99.9
2018-01-21T04:31:57.459Z,100.0
2018-01-21T04:32:58.896Z,100.0
2018-01-21T04:34:00.280Z,100.0
2018-01-21T04:35:01.807Z,100.0
2018-01-21T04:36:03.295Z,100.0
2018-01-21T04:37:04.767Z,100.0
2018-01-21T04:38:06.237Z,100.0
2018-01-21T04:39:07.641Z,100.0
2018-01-21T04:40:09.024Z,100.0
2018-01-21T04:41:10.395Z,100.0
2018-01-21T04:42:11.863Z,100.0
2018-01-21T04:43:13.235Z,100.0
2018-01-21T04:44:14.615Z,100.0
2018-01-21T04:45:16.293Z,100.0
2018-01-21T04:46:17.773Z,100.0
2018-01-21T04:47:19.156Z,100.0
2018-01-21T04:48:20.616Z,100.0
2018-01-21T04:49:22.054Z,100.0
2018-01-21T04:50:23.505Z,100.0
2018-01-21T04:51:24.952Z,100.0
2018-01-21T04:52:26.367Z,100.0
2018-01-21T04:53:27.867Z,100.0
2018-01-21T04:54:29.254Z,100.0
2018-01-21T04:55:30.653Z,100.0
2018-01-21T04:56:32.072Z,100.0
2018-01-21T04:57:33.501Z,100.0
2018-01-21T04:58:35.265Z,100.0
2018-01-21T04:59:36.990Z,100.0
2018-01-21T05:00:38.617Z,100.0
2018-01-21T05:01:40.020Z,100.0
2018-01-21T05:02:41.470Z,100.0
2018-01-21T05:03:42.966Z,100.0
2018-01-21T05:04:44.370Z,100.0
2018-01-21T05:05:45.800Z,100.0
2018-01-21T05:06:47.195Z,100.0
2018-01-21T05:07:48.664Z,100.0
2018-01-21T05:08:50.242Z,100.0
2018-01-21T05:09:51.600Z,100.0
2018-01-21T05:10:53.102Z,100.0
2018-01-21T05:11:54.565Z,100.0
2018-01-21T05:12:55.976Z,100.0
2018-01-21T05:13:57.418Z,100.0
2018-01-21T05:14:59.127Z,100.0
2018-01-21T05:16:00.567Z,100.0
2018-01-21T05:17:01.968Z,100.0
2018-01-21T05:18:03.409Z,100.0
2018-01-21T05:19:04.865Z,100.0
2018-01-21T05:20:06.261Z,100.0
2018-01-21T05:21:07.786Z,100.0
2018-01-21T05:22:09.186Z,100.0
2018-01-21T05:23:10.607Z,100.0
2018-01-21T05:24:12.130Z,100.0
2018-01-21T05:25:13.609Z,100.0
2018-01-21T05:26:15.097Z,100.0
2018-01-21T05:27:16.545Z,100.0
2018-01-21T05:28:18.001Z,100.0
2018-01-21T05:29:19.495Z,100.0
2018-01-21T05:30:20.912Z,100.0
2018-01-21T05:31:22.812Z,100.0
2018-01-21T05:32:24.174Z,100.0
2018-01-21T05:33:25.581Z,100.0
2018-01-21T05:34:27.048Z,100.0
2018-01-21T05:35:28.427Z,100.0
2018-01-21T05:36:29.934Z,100.0
2018-01-21T05:37:31.381Z,100.0
2018-01-21T05:38:32.785Z,100.0
2018-01-21T05:39:34.276Z,100.0
2018-01-21T05:40:35.735Z,100.0
2018-01-21T05:41:37.115Z,100.0
2018-01-21T05:42:38.598Z,100.0
2018-01-21T05:43:40.013Z,100.0
2018-01-21T05:44:41.406Z,100.0
2018-01-21T05:45:42.924Z,100.0
2018-01-21T05:46:44.313Z,100.0
2018-01-21T05:47:45.748Z,100.0
2018-01-21T05:48:47.212Z,100.0
2018-01-21T05:49:48.576Z,100.0
2018-01-21T05:50:50.110Z,100.0
2018-01-21T05:51:51.516Z,100.0
2018-01-21T05:52:52.908Z,100.0
2018-01-21T05:53:54.294Z,100.0
2018-01-21T05:54:55.690Z,100.0
2018-01-21T05:55:57.130Z,100.0
2018-01-21T05:56:58.563Z,100.0
2018-01-21T05:57:59.954Z,100.0
2018-01-21T05:59:01.344Z,100.0
2018-01-21T06:00:02.826Z,100.0
2018-01-21T06:01:04.216Z,100.0
2018-01-21T06:02:05.632Z,100.0
2018-01-21T06:03:07.018Z,100.0
2018-01-21T06:04:08.395Z,100.0
2018-01-21T06:05:09.818Z,100.0
2018-01-21T06:06:11.182Z,100.0
2018-01-21T06:07:12.585Z,100.0
2018-01-21T06:08:14.011Z,100.0
2018-01-21T06:09:15.635Z,100.0
2018-01-21T06:10:17.397Z,100.0
2018-01-21T06:11:19.068Z,100.0
2018-01-21T06:12:20.502Z,100.0
2018-01-21T06:13:21.897Z,100.0
2018-01-21T06:14:23.281Z,100.0
2018-01-21T06:15:24.838Z,100.0
2018-01-21T06:16:26.221Z,100.0
2018-01-21T06:17:27.701Z,100.0
2018-01-21T06:18:29.106Z,100.0
2018-01-21T06:19:30.530Z,100.0
2018-01-21T06:20:32.171Z,100.0
2018-01-21T06:21:33.871Z,100.0
2018-01-21T06:22:35.640Z,100.0
2018-01-21T06:23:37.485Z,100.0
2018-01-21T06:24:38.868Z,100.0
2018-01-21T06:25:40.652Z,100.0
2018-01-21T06:26:42.072Z,100.0
2018-01-21T06:27:43.476Z,100.0
2018-01-21T06:28:44.845Z,100.0
2018-01-21T06:29:46.255Z,100.0
2018-01-21T06:30:47.658Z,100.0
2018-01-21T06:31:49.232Z,100.0
2018-01-21T06:32:50.695Z,100.0
2018-01-21T06:33:52.137Z,100.0
2018-01-21T06:34:53.769Z,100.0
2018-01-21T06:35:55.275Z,100.0
2018-01-21T06:36:56.722Z,100.0
2018-01-21T06:37:58.109Z,100.0
2018-01-21T06:38:59.498Z,100.0
2018-01-21T06:40:00.946Z,100.0
2018-01-21T06:41:02.476Z,100.0
2018-01-21T06:42:03.875Z,100.0
2018-01-21T06:43:05.284Z,100.0
2018-01-21T06:44:06.739Z,100.0
2018-01-21T06:45:08.112Z,100.0
2018-01-21T06:46:10.015Z,100.0
2018-01-21T06:47:11.986Z,100.0
2018-01-21T06:48:13.401Z,100.0
2018-01-21T06:49:14.881Z,100.0
2018-01-21T06:50:16.374Z,100.0
2018-01-21T06:51:17.864Z,100.0
2018-01-21T06:52:19.284Z,100.0
2018-01-21T06:53:20.788Z,100.0
2018-01-21T06:54:22.257Z,100.0
2018-01-21T06:55:23.959Z,100.0
2018-01-21T06:56:25.395Z,100.0
2018-01-21T06:57:26.840Z,100.0
2018-01-21T06:58:28.272Z,100.0
2018-01-21T06:59:29.659Z,100.0
2018-01-21T07:00:31.055Z,100.0
2018-01-21T07:01:32.522Z,100.0
2018-01-21T07:02:34.001Z,100.0
2018-01-21T07:03:35.410Z,100.0
2018-01-21T07:04:36.831Z,100.0
2018-01-21T07:05:38.232Z,100.0
2018-01-21T07:06:39.653Z,100.0
2018-01-21T07:07:41.078Z,100.0
2018-01-21T07:08:42.911Z,100.0
2018-01-21T07:09:44.399Z,100.0
2018-01-21T07:10:45.807Z,100.0
2018-01-21T07:11:47.336Z,100.0
2018-01-21T07:12:48.754Z,100.0
2018-01-21T07:13:50.220Z,100.0
2018-01-21T07:14:51.673Z,100.0
2018-01-21T07:15:53.110Z,100.0
2018-01-21T07:16:54.542Z,100.0
2018-01-21T07:17:56.215Z,100.0
2018-01-21T07:18:58.104Z,100.0
2018-01-21T07:19:59.617Z,100.0
2018-01-21T07:21:01.388Z,100.0
2018-01-21T07:22:02.883Z,100.0
2018-01-21T07:23:04.276Z,100.0
2018-01-21T07:24:05.847Z,100.0
2018-01-21T07:25:07.236Z,100.0
2018-01-21T07:26:08.657Z,100.0
2018-01-21T07:27:10.121Z,100.0
2018-01-21T07:28:11.565Z,100.0
2018-01-21T07:29:12.936Z,100.0
2018-01-21T07:30:14.479Z,100.0
2018-01-21T07:31:16.005Z,100.0
2018-01-21T07:32:17.725Z,100.0
2018-01-21T07:33:19.473Z,100.0
2018-01-21T07:34:20.912Z,100.0
2018-01-21T07:35:22.334Z,100.0
2018-01-21T07:36:23.779Z,100.0
2018-01-21T07:37:25.222Z,100.0
2018-01-21T07:38:26.645Z,100.0
2018-01-21T07:39:28.347Z,100.0
2018-01-21T07:40:29.890Z,100.0
2018-01-21T07:41:31.309Z,100.0
2018-01-21T07:42:32.705Z,100.0
2018-01-21T07:43:34.086Z,100.0
2018-01-21T07:44:35.524Z,100.0
2018-01-21T07:45:36.960Z,100.0
2018-01-21T07:46:38.409Z,100.0
2018-01-21T07:47:39.919Z,100.0
2018-01-21T07:48:41.370Z,100.0
2018-01-21T07:49:42.815Z,100.0
2018-01-21T07:50:44.213Z,100.0
2018-01-21T07:51:45.652Z,100.0
2018-01-21T07:52:47.087Z,100.0
2018-01-21T07:53:48.543Z,100.0
2018-01-21T07:54:50.095Z,100.0
2018-01-21T07:55:51.543Z,100.0
2018-01-21T07:56:52.923Z,100.0
2018-01-21T07:57:54.351Z,100.0
2018-01-21T07:58:55.803Z,100.0
2018-01-21T07:59:57.382Z,100.0
2018-01-21T08:00:58.923Z,100.0
2018-01-21T08:02:00.387Z,100.0
2018-01-21T08:03:01.818Z,100.0
2018-01-21T08:04:03.313Z,100.0
2018-01-21T08:05:04.752Z,100.0
2018-01-21T08:06:06.142Z,100.0
2018-01-21T08:07:07.527Z,100.0
2018-01-21T08:08:08.981Z,100.0
2018-01-21T08:09:10.400Z,100.0
2018-01-21T08:10:11.851Z,100.0
2018-01-21T08:11:13.221Z,100.0
2018-01-21T08:12:14.613Z,100.0
2018-01-21T08:13:16.061Z,100.0
2018-01-21T08:14:17.518Z,100.0
2018-01-21T08:15:19.005Z,100.0
2018-01-21T08:16:20.457Z,100.0
2018-01-21T08:17:21.841Z,100.0
2018-01-21T08:18:23.266Z,100.0
2018-01-21T08:19:24.636Z,99.8
2018-01-21T08:20:26.025Z,100.0
2018-01-21T08:21:27.475Z,100.0
2018-01-21T08:22:28.927Z,100.0
2018-01-21T08:23:30.392Z,100.0
2018-01-21T08:24:31.844Z,100.0
2018-01-21T08:25:33.258Z,100.0
2018-01-21T08:26:34.647Z,100.0
2018-01-21T08:27:36.059Z,100.0
2018-01-21T08:28:37.488Z,100.0
2018-01-21T08:29:38.900Z,100.0
2018-01-21T08:30:40.378Z,100.0
2018-01-21T08:31:41.848Z,100.0
2018-01-21T08:32:43.234Z,100.0
2018-01-21T08:33:44.622Z,100.0
2018-01-21T08:34:46.008Z,100.0
2018-01-21T08:35:47.400Z,100.0
2018-01-21T08:36:48.842Z,100.0
2018-01-21T08:37:50.246Z,100.0
2018-01-21T08:38:51.618Z,100.0
2018-01-21T08:39:53.123Z,100.0
2018-01-21T08:40:54.513Z,100.0
2018-01-21T08:41:55.918Z,100.0
2018-01-21T08:42:57.405Z,100.0
2018-01-21T08:43:58.787Z,100.0
2018-01-21T08:45:00.248Z,100.0
2018-01-21T08:46:01.714Z,100.0
2018-01-21T08:47:03.092Z,100.0
2018-01-21T08:48:04.574Z,99.9
2018-01-21T08:49:05.986Z,99.9
2018-01-21T08:50:07.374Z,100.0
2018-01-21T08:51:08.763Z,99.9
2018-01-21T08:52:10.190Z,100.0
2018-01-21T08:53:11.586Z,99.8
2018-01-21T08:54:13.033Z,99.5
2018-01-21T08:55:14.413Z,100.0
2018-01-21T08:56:15.813Z,99.6
2018-01-21T08:57:17.196Z,99.5
2018-01-21T08:58:18.566Z,99.3
2018-01-21T08:59:20.064Z,99.6
2018-01-21T09:00:21.451Z,99.4
2018-01-21T09:01:22.919Z,99.8
2018-01-21T09:02:24.347Z,100.0
2018-01-21T09:03:25.753Z,99.6
2018-01-21T09:04:27.195Z,99.5
2018-01-21T09:05:28.588Z,99.2
2018-01-21T09:06:29.982Z,100.0
2018-01-21T09:07:31.425Z,100.0
2018-01-21T09:08:32.842Z,99.9
2018-01-21T09:09:34.281Z,99.5
2018-01-21T09:10:35.707Z,100.0
2018-01-21T09:11:37.096Z,100.0
2018-01-21T09:12:38.515Z,99.2
2018-01-21T09:13:40.413Z,99.4
2018-01-21T09:14:41.826Z,99.5
2018-01-21T09:15:43.247Z,99.1
2018-01-21T09:16:44.668Z,99.4
2018-01-21T09:17:46.089Z,98.6
2018-01-21T09:18:47.595Z,99.0
2018-01-21T09:19:49.070Z,98.9
2018-01-21T09:20:50.497Z,98.8
2018-01-21T09:21:51.890Z,99.0
2018-01-21T09:22:53.283Z,99.2
2018-01-21T09:23:54.687Z,98.3
2018-01-21T09:24:56.081Z,98.6
2018-01-21T09:25:57.544Z,98.5
2018-01-21T09:26:58.971Z,98.1
2018-01-21T09:28:00.450Z,98.1
2018-01-21T09:29:01.917Z,98.0
2018-01-21T09:30:03.425Z,97.3
2018-01-21T09:31:04.770Z,96.8
2018-01-21T09:32:06.188Z,96.8
2018-01-21T09:33:07.598Z,97.6
2018-01-21T09:34:09.054Z,97.8
2018-01-21T09:35:10.541Z,97.5
2018-01-21T09:36:11.963Z,97.5
2018-01-21T09:37:13.461Z,97.5
2018-01-21T09:38:14.820Z,98.3
2018-01-21T09:39:16.201Z,97.9
2018-01-21T09:40:17.666Z,97.6
2018-01-21T09:41:19.172Z,98.1
2018-01-21T09:42:20.613Z,97.5
2018-01-21T09:43:22.056Z,97.5
2018-01-21T09:44:23.433Z,98.0
2018-01-21T09:45:24.858Z,97.6
2018-01-21T09:46:26.318Z,97.9
2018-01-21T09:47:27.769Z,97.2
2018-01-21T09:48:29.185Z,96.9
2018-01-21T09:49:30.612Z,97.0
2018-01-21T09:50:32.190Z,97.2
2018-01-21T09:51:33.615Z,96.9
2018-01-21T09:52:35.090Z,97.4
2018-01-21T09:53:36.540Z,98.4
2018-01-21T09:54:37.939Z,98.6
2018-01-21T09:55:39.379Z,98.8
2018-01-21T09:57:21.744Z,98.0
2018-01-21T09:58:23.115Z,98.3
2018-01-21T09:59:24.483Z,98.4
2018-01-21T10:00:25.857Z,98.8
2018-01-21T10:01:27.225Z,99.5
2018-01-21T10:02:28.598Z,98.7
2018-01-21T10:03:29.990Z,98.5
2018-01-21T10:04:31.370Z,98.8
2018-01-21T10:05:32.737Z,98.6
2018-01-21T10:06:34.118Z,98.8
2018-01-21T10:07:35.543Z,98.6
2018-01-21T10:08:37.047Z,98.7
2018-01-21T10:09:38.447Z,98.3
2018-01-21T10:10:39.835Z,98.1
2018-01-21T10:11:41.242Z,97.5
2018-01-21T10:12:42.687Z,98.1
2018-01-21T10:13:44.112Z,98.3
2018-01-21T10:14:45.538Z,98.2
2018-01-21T10:15:46.951Z,99.0
2018-01-21T10:16:48.410Z,98.8
2018-01-21T10:17:49.808Z,97.5
2018-01-21T10:18:51.351Z,97.6
2018-01-21T10:19:52.695Z,98.0
2018-01-21T10:20:54.129Z,98.6
2018-01-21T10:21:55.553Z,99.0
2018-01-21T10:22:56.935Z,98.9
2018-01-21T10:23:58.374Z,98.4
2018-01-21T10:24:59.791Z,98.9
2018-01-21T10:26:01.276Z,98.7
2018-01-21T10:27:02.721Z,99.3
2018-01-21T10:28:04.121Z,98.6
2018-01-21T10:29:05.615Z,98.5
2018-01-21T10:30:07.066Z,98.4
2018-01-21T10:31:08.470Z,98.7
2018-01-21T10:32:09.888Z,99.2
2018-01-21T10:33:11.318Z,99.8
2018-01-21T10:34:12.692Z,98.4
2018-01-21T10:35:14.076Z,98.3
2018-01-21T10:36:15.549Z,98.1
2018-01-21T10:37:16.965Z,98.3
2018-01-21T10:38:18.342Z,98.1
2018-01-21T10:39:19.811Z,98.0
2018-01-21T10:40:21.231Z,98.1
2018-01-21T10:41:22.678Z,97.7
2018-01-21T10:42:24.061Z,97.8
2018-01-21T10:43:25.532Z,97.6
2018-01-21T10:44:27.002Z,98.1
2018-01-21T10:45:28.400Z,97.9
2018-01-21T10:46:29.839Z,98.1
2018-01-21T10:47:31.226Z,98.0
2018-01-21T10:48:32.663Z,97.9
2018-01-21T10:49:34.064Z,98.1
2018-01-21T10:50:35.523Z,98.4
2018-01-21T10:51:36.924Z,98.1
2018-01-21T10:52:38.381Z,97.6
2018-01-21T10:53:39.812Z,97.8
2018-01-21T10:54:41.214Z,98.1
2018-01-21T10:55:42.609Z,98.1
2018-01-21T10:56:44.087Z,97.4
2018-01-21T10:57:45.594Z,97.6
2018-01-21T10:58:46.957Z,98.1
2018-01-21T10:59:48.348Z,98.1
2018-01-21T11:00:49.829Z,97.2
2018-01-21T11:01:51.306Z,98.0
2018-01-21T11:02:52.685Z,97.9
2018-01-21T11:03:54.189Z,97.2
2018-01-21T11:04:55.637Z,97.8
2018-01-21T11:05:57.141Z,98.2
2018-01-21T11:06:58.543Z,98.1
2018-01-21T11:08:00.041Z,98.0
2018-01-21T11:09:01.447Z,96.7
2018-01-21T11:10:02.923Z,97.0
2018-01-21T11:11:04.359Z,96.5
2018-01-21T11:12:05.841Z,97.3
2018-01-21T11:13:07.250Z,97.5
2018-01-21T11:14:08.712Z,97.9
2018-01-21T11:15:10.148Z,97.7
2018-01-21T11:16:11.544Z,97.7
2018-01-21T11:17:12.926Z,98.0
2018-01-21T11:18:14.440Z,97.0
2018-01-21T11:19:15.988Z,96.8
2018-01-21T11:20:17.408Z,97.5
2018-01-21T11:21:18.830Z,97.3
2018-01-21T11:22:20.266Z,96.9
2018-01-21T11:23:21.672Z,96.7
2018-01-21T11:24:23.168Z,96.1
2018-01-21T11:25:24.557Z,96.5
2018-01-21T11:26:25.947Z,96.5
2018-01-21T11:27:27.492Z,96.5
2018-01-21T11:28:28.957Z,96.5
2018-01-21T11:29:30.487Z,96.9
2018-01-21T11:30:32.259Z,96.7
2018-01-21T11:31:34.098Z,97.0
2018-01-21T11:32:35.820Z,96.7
2018-01-21T11:33:37.268Z,96.5
2018-01-21T11:34:38.680Z,96.3
2018-01-21T11:35:40.077Z,95.0
2018-01-21T11:36:41.465Z,94.3
2018-01-21T11:37:42.998Z,94.8
2018-01-21T11:38:44.469Z,95.4
2018-01-21T11:39:45.955Z,94.4
2018-01-21T11:40:47.478Z,94.1
2018-01-21T11:41:48.909Z,93.7
2018-01-21T11:42:50.320Z,93.5
2018-01-21T11:43:52.022Z,93.9
2018-01-21T11:44:53.736Z,94.5
2018-01-21T11:45:55.499Z,94.2
2018-01-21T11:46:57.378Z,94.0
2018-01-21T11:47:58.818Z,93.6
2018-01-21T11:49:00.408Z,93.9
2018-01-21T11:50:01.908Z,93.7
2018-01-21T11:51:03.377Z,94.5
2018-01-21T11:52:04.764Z,94.2
2018-01-21T11:53:06.162Z,93.6
2018-01-21T11:54:07.621Z,93.6
2018-01-21T11:55:09.053Z,93.5
2018-01-21T11:56:10.529Z,93.8
2018-01-21T11:57:11.949Z,93.8
2018-01-21T11:58:13.349Z,94.0
2018-01-21T11:59:14.778Z,93.8
2018-01-21T12:00:16.278Z,93.8
2018-01-21T12:01:17.752Z,94.0
2018-01-21T12:02:19.164Z,92.7
2018-01-21T12:03:20.615Z,92.3
2018-01-21T12:04:22.053Z,91.6
2018-01-21T12:05:23.576Z,91.2
2018-01-21T12:06:24.985Z,90.3
2018-01-21T12:07:26.426Z,89.0
2018-01-21T12:08:27.829Z,88.3
2018-01-21T12:09:29.315Z,87.8
2018-01-21T12:10:30.717Z,86.8
2018-01-21T12:11:32.214Z,85.8
2018-01-21T12:12:33.684Z,84.5
2018-01-21T12:13:35.131Z,82.5
2018-01-21T12:14:36.507Z,79.9
2018-01-21T12:15:37.926Z,78.4
2018-01-21T12:16:39.477Z,75.6
2018-01-21T12:17:40.882Z,73.1
2018-01-21T12:18:42.284Z,70.1
2018-01-21T12:19:43.744Z,70.5
2018-01-21T12:20:45.151Z,68.2
2018-01-21T12:21:46.559Z,70.8
2018-01-21T12:22:47.976Z,69.8
2018-01-21T12:23:49.372Z,69.7
2018-01-21T12:24:50.884Z,69.6
2018-01-21T12:25:52.377Z,71.0
2018-01-21T12:26:53.783Z,72.0
2018-01-21T12:27:55.156Z,73.3
2018-01-21T12:28:56.593Z,74.4
2018-01-21T12:29:58.073Z,74.7
2018-01-21T12:30:59.486Z,75.2
2018-01-21T12:32:00.969Z,75.6
2018-01-21T12:33:02.392Z,77.1
2018-01-21T12:34:03.873Z,77.3
2018-01-21T12:35:05.280Z,78.1
2018-01-21T12:36:06.678Z,77.2
2018-01-21T12:37:08.115Z,79.2
2018-01-21T12:38:09.510Z,80.2
2018-01-21T12:39:11.058Z,79.9
2018-01-21T12:40:12.467Z,80.9
2018-01-21T12:41:13.907Z,80.7
2018-01-21T12:42:15.337Z,81.0
2018-01-21T12:43:16.792Z,80.5
2018-01-21T12:44:18.194Z,80.6
2018-01-21T12:45:19.626Z,82.3
2018-01-21T12:46:21.036Z,83.2
2018-01-21T12:47:22.484Z,83.3
2018-01-21T12:48:23.928Z,83.9
2018-01-21T12:49:25.363Z,84.8
2018-01-21T12:50:26.974Z,85.1
2018-01-21T12:51:28.355Z,85.0
2018-01-21T12:52:29.748Z,85.9
2018-01-21T12:53:31.176Z,87.2
2018-01-21T12:54:32.682Z,87.6
2018-01-21T12:55:34.162Z,88.5
2018-01-21T12:56:35.584Z,88.5
2018-01-21T12:57:36.984Z,89.6
2018-01-21T12:58:38.424Z,89.6
2018-01-21T12:59:39.862Z,89.6
2018-01-21T13:00:41.353Z,90.3
2018-01-21T13:01:42.757Z,90.9
2018-01-21T13:02:44.159Z,91.8
2018-01-21T13:03:45.678Z,91.5
2018-01-21T13:04:47.116Z,91.5
2018-01-21T13:05:48.498Z,90.9
2018-01-21T13:06:49.962Z,91.7
2018-01-21T13:07:51.412Z,91.7
2018-01-21T13:08:52.802Z,91.7
2018-01-21T13:09:54.180Z,92.0
2018-01-21T13:10:55.680Z,92.2
2018-01-21T13:11:57.124Z,92.7
2018-01-21T13:12:58.553Z,92.5
2018-01-21T13:14:00.012Z,92.1
2018-01-21T13:15:01.392Z,90.9
2018-01-21T13:16:02.801Z,91.2
2018-01-21T13:17:04.172Z,91.8
2018-01-21T13:18:05.693Z,91.2
2018-01-21T13:19:07.098Z,90.6
2018-01-21T13:20:08.535Z,90.0
2018-01-21T13:21:10.020Z,89.6